createdAt,value
2018-05-24T00:00:36.192Z,101134.41
2018-05-24T00:03:04.929Z,101132.01
2018-05-24T00:05:36.159Z,101138.95
2018-05-24T00:08:04.810Z,101136.46
2018-05-24T00:10:33.569Z,101131.80
2018-05-24T00:13:02.300Z,101130.81
2018-05-24T00:15:48.493Z,101132.63
2018-05-24T00:18:17.172Z,101122.27
2018-05-24T00:20:45.865Z,101125.96
2018-05-24T00:23:14.566Z,101132.53
2018-05-24T00:25:50.629Z,101131.61
2018-05-24T00:28:22.100Z,101130.89
2018-05-24T00:30:52.116Z,101129.29
2018-05-24T00:33:22.114Z,101135.16
2018-05-24T00:35:51.947Z,101125.75
2018-05-24T00:38:24.429Z,101130.77
2018-05-24T00:40:53.424Z,101127.03
2018-05-24T00:43:26.889Z,101123.48
2018-05-24T00:45:59.687Z,101122.14
2018-05-24T00:48:30.537Z,101124.47
2018-05-24T00:51:00.284Z,101117.19
2018-05-24T00:53:29.060Z,101114.93
2018-05-24T00:56:00.688Z,101129.55
2018-05-24T00:58:33.873Z,101126.45
2018-05-24T01:01:02.524Z,101128.86
2018-05-24T01:03:35.471Z,101135.86
2018-05-24T01:06:08.063Z,101133.87
2018-05-24T01:08:39.682Z,101132.83
2018-05-24T01:11:12.790Z,101132.83
2018-05-24T01:13:41.860Z,101132.60
2018-05-24T01:16:11.422Z,101132.47
2018-05-24T01:18:48.253Z,101130.34
2018-05-24T01:21:17.449Z,101135.49
2018-05-24T01:23:49.516Z,101135.01
2018-05-24T01:26:25.696Z,101138.95
2018-05-24T01:29:06.307Z,101139.31
2018-05-24T01:31:44.527Z,101140.50
2018-05-24T01:37:45.952Z,101124.44
2018-05-24T01:40:18.810Z,101127.39
2018-05-24T01:42:47.514Z,101129.17
2018-05-24T01:45:16.143Z,101130.14
2018-05-24T01:47:48.554Z,101122.30
2018-05-24T01:50:25.741Z,101125.11
2018-05-24T01:52:54.407Z,101114.91
2018-05-24T01:55:42.424Z,101118.16
2018-05-24T01:58:15.569Z,101117.59
2018-05-24T02:00:48.634Z,101117.86
2018-05-24T02:03:17.750Z,101119.97
2018-05-24T02:05:49.482Z,101119.98
2018-05-24T02:08:23.556Z,101123.06
2018-05-24T02:10:49.315Z,101120.25
2018-05-24T02:13:18.003Z,101117.67
2018-05-24T02:15:49.485Z,101122.55
2018-05-24T02:18:18.513Z,101126.84
2018-05-24T02:20:47.759Z,101131.20
2018-05-24T02:23:19.108Z,101128.64
2018-05-24T02:25:50.067Z,101126.41
2018-05-24T02:28:19.034Z,101131.91
2018-05-24T02:30:48.818Z,101139.31
2018-05-24T02:33:17.694Z,101128.08
2018-05-24T02:35:46.648Z,101134.07
2018-05-24T02:38:15.257Z,101139.70
2018-05-24T02:40:44.076Z,101138.87
2018-05-24T02:43:16.279Z,101144.44
2018-05-24T02:45:47.829Z,101135.86
2018-05-24T02:48:19.291Z,101143.05
2018-05-24T02:50:48.045Z,101146.81
2018-05-24T02:53:16.747Z,101143.05
2018-05-24T02:55:45.507Z,101152.63
2018-05-24T03:01:01.943Z,101149.70
2018-05-24T03:03:30.778Z,101146.78
2018-05-24T03:05:59.494Z,101160.75
2018-05-24T03:08:28.132Z,101156.70
2018-05-24T03:10:56.845Z,101152.39
2018-05-24T03:13:25.488Z,101156.11
2018-05-24T03:15:58.533Z,101152.88
2018-05-24T03:18:27.194Z,101149.66
2018-05-24T03:20:56.819Z,101156.83
2018-05-24T03:23:25.517Z,101150.89
2018-05-24T03:25:54.517Z,101158.34
2018-05-24T03:28:23.191Z,101149.99
2018-05-24T03:30:51.855Z,101146.93
2018-05-24T03:33:21.434Z,101150.74
2018-05-24T03:35:50.097Z,101148.43
2018-05-24T03:38:18.999Z,101145.14
2018-05-24T03:40:48.894Z,101149.59
2018-05-24T03:43:17.516Z,101146.85
2018-05-24T03:45:46.542Z,101145.73
2018-05-24T03:48:22.953Z,101150.48
2018-05-24T03:50:51.922Z,101155.26
2018-05-24T03:53:21.558Z,101144.23
2018-05-24T03:55:50.194Z,101155.99
2018-05-24T03:58:18.856Z,101158.48
2018-05-24T04:01:30.220Z,101150.31
2018-05-24T04:04:36.295Z,101157.15
2018-05-24T04:07:07.483Z,101155.23
2018-05-24T04:09:37.140Z,101161.38
2018-05-24T04:14:53.838Z,101164.43
2018-05-24T04:25:47.512Z,101160.77
2018-05-24T04:28:18.159Z,101164.31
2018-05-24T04:36:23.985Z,101164.86
2018-05-24T04:38:54.596Z,101165.45
2018-05-24T04:41:23.260Z,101162.03
2018-05-24T04:43:52.037Z,101169.45
2018-05-24T04:46:38.849Z,101181.16
2018-05-24T04:49:07.836Z,101181.95
2018-05-24T04:51:38.596Z,101183.41
2018-05-24T04:54:16.054Z,101180.67
2018-05-24T04:56:44.721Z,101185.24
2018-05-24T04:59:13.383Z,101180.67
2018-05-24T05:01:57.977Z,101180.88
2018-05-24T05:04:28.826Z,101180.94
2018-05-24T05:06:57.475Z,101183.25
2018-05-24T05:09:26.095Z,101182.64
2018-05-24T05:11:57.744Z,101187.73
2018-05-24T05:14:26.399Z,101194.61
2018-05-24T05:16:55.055Z,101193.09
2018-05-24T05:19:25.768Z,101195.60
2018-05-24T05:21:55.903Z,101188.56
2018-05-24T05:24:24.551Z,101192.17
2018-05-24T05:26:55.200Z,101190.14
2018-05-24T05:29:24.823Z,101197.52
2018-05-24T05:31:55.568Z,101194.75
2018-05-24T05:34:24.267Z,101200.14
2018-05-24T05:36:53.517Z,101203.40
2018-05-24T05:39:24.874Z,101200.41
2018-05-24T05:41:58.118Z,101203.28
2018-05-24T05:47:18.930Z,101202.20
2018-05-24T05:49:47.641Z,101195.77
2018-05-24T05:52:16.524Z,101200.64
2018-05-24T05:54:45.214Z,101197.36
2018-05-24T05:57:23.974Z,101194.61
2018-05-24T05:59:53.661Z,101204.73
2018-05-24T06:02:23.288Z,101206.48
2018-05-24T06:04:51.953Z,101205.56
2018-05-24T06:07:20.605Z,101204.04
2018-05-24T06:09:49.530Z,101204.28
2018-05-24T06:12:18.244Z,101203.80
2018-05-24T06:15:07.966Z,101201.89
2018-05-24T06:17:44.867Z,101200.63
2018-05-24T06:20:14.662Z,101200.98
2018-05-24T06:22:43.688Z,101206.64
2018-05-24T06:25:12.687Z,101204.70
2018-05-24T06:27:49.916Z,101202.80
2018-05-24T06:30:20.228Z,101203.89
2018-05-24T06:32:48.861Z,101200.66
2018-05-24T06:35:17.652Z,101191.86
2018-05-24T06:37:46.286Z,101196.22
2018-05-24T06:40:17.229Z,101200.64
2018-05-24T06:42:45.874Z,101200.89
2018-05-24T06:45:14.952Z,101200.89
2018-05-24T06:47:43.720Z,101199.22
2018-05-24T06:50:12.563Z,101189.30
2018-05-24T06:52:42.301Z,101198.77
2018-05-24T06:55:10.979Z,101189.34
2018-05-24T06:57:39.610Z,101192.27
2018-05-24T07:00:08.256Z,101197.17
2018-05-24T07:02:38.049Z,101185.52
2018-05-24T07:05:09.371Z,101186.87
2018-05-24T07:07:39.935Z,101187.61
2018-05-24T07:10:08.584Z,101181.16
2018-05-24T07:12:37.339Z,101177.89
2018-05-24T07:15:06.006Z,101180.20
2018-05-24T07:17:35.122Z,101172.98
2018-05-24T07:20:06.277Z,101176.67
2018-05-24T07:22:34.896Z,101175.02
2018-05-24T07:25:05.805Z,101181.49
2018-05-24T07:27:41.978Z,101179.41
2018-05-24T07:30:11.082Z,101182.13
2018-05-24T07:32:40.400Z,101178.27
2018-05-24T07:35:09.141Z,101180.00
2018-05-24T07:37:37.775Z,101184.67
2018-05-24T07:40:06.435Z,101178.66
2018-05-24T07:42:37.740Z,101174.31
2018-05-24T07:47:53.960Z,101173.55
2018-05-24T07:50:22.857Z,101176.73
2018-05-24T07:52:52.416Z,101168.70
2018-05-24T07:55:39.400Z,101168.48
2018-05-24T07:58:08.033Z,101170.48
2018-05-24T08:00:39.139Z,101165.28
2018-05-24T08:03:16.029Z,101166.89
2018-05-24T08:05:54.643Z,101166.26
2018-05-24T08:08:23.272Z,101156.81
2018-05-24T08:10:51.951Z,101156.37
2018-05-24T08:13:23.163Z,101157.16
2018-05-24T08:15:51.812Z,101161.80
2018-05-24T08:18:20.534Z,101159.92
2018-05-24T08:20:49.676Z,101164.75
2018-05-24T08:23:19.193Z,101154.35
2018-05-24T08:25:47.887Z,101157.82
2018-05-24T08:28:16.532Z,101160.18
2018-05-24T08:33:32.770Z,101154.34
2018-05-24T08:36:01.496Z,101156.98
2018-05-24T08:38:30.114Z,101167.98
2018-05-24T08:40:59.288Z,101168.55
2018-05-24T08:43:29.104Z,101159.44
2018-05-24T08:46:07.935Z,101155.48
2018-05-24T08:48:36.550Z,101157.66
2018-05-24T08:51:05.926Z,101148.70
2018-05-24T08:53:36.485Z,101148.58
2018-05-24T08:56:07.188Z,101164.76
2018-05-24T08:58:35.816Z,101151.39
2018-05-24T09:01:05.382Z,101144.92
2018-05-24T09:03:34.059Z,101143.67
2018-05-24T09:06:03.788Z,101154.42
2018-05-24T09:08:40.772Z,101142.80
2018-05-24T09:11:09.725Z,101149.13
2018-05-24T09:13:39.417Z,101151.42
2018-05-24T09:16:08.289Z,101157.52
2018-05-24T09:18:36.943Z,101157.19
2018-05-24T09:21:05.886Z,101160.85
2018-05-24T09:23:34.538Z,101148.66
2018-05-24T09:26:03.606Z,101149.31
2018-05-24T09:28:35.080Z,101142.34
2018-05-24T09:31:05.395Z,101150.25
2018-05-24T09:33:36.731Z,101150.63
2018-05-24T09:36:05.368Z,101152.56
2018-05-24T09:38:34.046Z,101151.59
2018-05-24T09:41:05.568Z,101147.43
2018-05-24T09:43:34.944Z,101153.55
2018-05-24T09:46:06.306Z,101153.73
2018-05-24T09:48:37.236Z,101156.78
2018-05-24T09:51:06.237Z,101154.42
2018-05-24T09:53:37.284Z,101147.52
2018-05-24T09:56:05.901Z,101154.14
2018-05-24T09:58:34.982Z,101147.51
2018-05-24T10:01:03.654Z,101148.63
2018-05-24T10:03:32.333Z,101147.64
2018-05-24T10:06:00.997Z,101143.61
2018-05-24T10:08:30.254Z,101138.66
2018-05-24T10:11:00.202Z,101132.98
2018-05-24T10:16:20.453Z,101128.47
2018-05-24T10:18:51.703Z,101126.27
2018-05-24T10:21:23.504Z,101127.81
2018-05-24T10:23:52.973Z,101119.98
2018-05-24T10:26:31.676Z,101122.18
2018-05-24T10:29:02.055Z,101117.69
2018-05-24T10:31:32.678Z,101114.20
2018-05-24T10:34:02.339Z,101106.78
2018-05-24T10:36:34.209Z,101114.74
2018-05-24T10:39:03.214Z,101108.66
2018-05-24T10:41:32.090Z,101106.62
2018-05-24T10:44:03.162Z,101107.97
2018-05-24T10:46:36.251Z,101107.59
2018-05-24T10:49:05.405Z,101107.13
2018-05-24T10:51:34.463Z,101104.49
2018-05-24T10:54:03.600Z,101109.61
2018-05-24T10:56:32.345Z,101111.77
2018-05-24T10:59:00.949Z,101112.19
2018-05-24T11:01:29.869Z,101112.56
2018-05-24T11:03:58.892Z,101109.89
2018-05-24T11:06:27.718Z,101102.81
2018-05-24T11:09:00.317Z,101104.55
2018-05-24T11:11:32.992Z,101102.09
2018-05-24T11:14:01.625Z,101101.41
2018-05-24T11:16:30.293Z,101098.08
2018-05-24T11:18:58.910Z,101098.88
2018-05-24T11:21:28.076Z,101092.20
2018-05-24T11:23:58.201Z,101091.20
2018-05-24T11:26:27.252Z,101088.05
2018-05-24T11:28:57.024Z,101092.73
2018-05-24T11:31:26.586Z,101091.14
2018-05-24T11:34:13.457Z,101088.44
2018-05-24T11:36:42.637Z,101091.73
2018-05-24T11:39:11.263Z,101086.77
2018-05-24T11:41:39.934Z,101089.83
2018-05-24T11:44:08.710Z,101085.20
2018-05-24T11:46:43.166Z,101085.83
2018-05-24T11:52:01.297Z,101084.88
2018-05-24T11:54:32.188Z,101085.01
2018-05-24T11:57:18.913Z,101076.19
2018-05-24T11:59:47.814Z,101073.90
2018-05-24T12:02:17.140Z,101063.54
2018-05-24T12:04:46.167Z,101067.02
2018-05-24T12:07:18.895Z,101062.79
2018-05-24T12:09:47.748Z,101066.31
2018-05-24T12:12:16.877Z,101060.37
2018-05-24T12:14:50.252Z,101064.50
2018-05-24T12:17:21.584Z,101059.85
2018-05-24T12:19:50.794Z,101056.88
2018-05-24T12:27:57.695Z,101053.38
2018-05-24T12:30:29.159Z,101049.57
2018-05-24T12:38:41.201Z,101037.56
2018-05-24T12:44:05.591Z,101035.13
2018-05-24T12:46:34.746Z,101033.47
2018-05-24T12:49:06.706Z,101028.59
2018-05-24T12:51:37.896Z,101021.83
2018-05-24T12:54:06.967Z,101025.67
2018-05-24T12:56:36.741Z,101020.16
2018-05-24T12:59:08.851Z,101012.50
2018-05-24T13:01:41.758Z,101018.41
2018-05-24T13:04:11.973Z,101007.37
2018-05-24T13:06:40.602Z,101011.72
2018-05-24T13:09:14.549Z,101010.09
2018-05-24T13:11:49.765Z,101012.14
2018-05-24T13:14:32.459Z,101003.20
2018-05-24T13:19:57.936Z,100995.03
2018-05-24T13:22:45.897Z,100993.69
2018-05-24T13:25:16.898Z,100991.88
2018-05-24T13:27:45.794Z,100993.70
2018-05-24T13:30:24.927Z,100987.91
2018-05-24T13:33:00.832Z,100987.69
2018-05-24T13:35:36.619Z,100982.37
2018-05-24T13:38:08.616Z,100979.52
2018-05-24T13:40:48.316Z,100977.02
2018-05-24T13:43:17.302Z,100974.62
2018-05-24T13:45:50.791Z,100977.34
2018-05-24T13:48:24.079Z,100973.41
2018-05-24T13:50:53.271Z,100974.16
2018-05-24T13:53:37.103Z,100969.27
2018-05-24T13:56:08.711Z,100964.92
2018-05-24T13:58:43.490Z,100961.07
2018-05-24T14:01:17.772Z,100958.92
2018-05-24T14:03:49.956Z,100958.84
2018-05-24T14:06:23.008Z,100959.42
2018-05-24T14:08:57.241Z,100955.70
2018-05-24T14:11:31.714Z,100958.33
2018-05-24T14:14:00.569Z,100949.27
2018-05-24T14:16:48.388Z,100944.70
2018-05-24T14:19:21.676Z,100948.73
2018-05-24T14:21:50.693Z,100945.87
2018-05-24T14:24:21.138Z,100945.36
2018-05-24T14:26:52.546Z,100944.00
2018-05-24T14:29:24.153Z,100941.56
2018-05-24T14:32:08.999Z,100938.28
2018-05-24T14:34:39.250Z,100932.84
2018-05-24T14:37:09.591Z,100933.07
2018-05-24T14:39:38.856Z,100928.63
2018-05-24T14:42:21.627Z,100928.89
2018-05-24T14:44:53.172Z,100936.50
2018-05-24T14:47:27.558Z,100935.61
2018-05-24T14:49:58.044Z,100937.16
2018-05-24T14:52:30.217Z,100937.02
2018-05-24T14:55:00.474Z,100930.64
2018-05-24T14:57:41.685Z,100935.51
2018-05-24T15:00:13.564Z,100929.60
2018-05-24T15:02:43.994Z,100930.72
2018-05-24T15:05:12.888Z,100934.37
2018-05-24T15:07:41.816Z,100941.27
2018-05-24T15:10:18.803Z,100936.67
2018-05-24T15:12:51.796Z,100933.16
2018-05-24T15:15:25.175Z,100920.48
2018-05-24T15:17:56.893Z,100925.70
2018-05-24T15:23:14.889Z,100929.22
2018-05-24T15:25:47.869Z,100921.42
2018-05-24T15:28:20.610Z,100920.64
2018-05-24T15:30:49.536Z,100925.78
2018-05-24T15:33:20.035Z,100923.92
2018-05-24T15:35:49.027Z,100923.00
2018-05-24T15:38:24.269Z,100917.46
2018-05-24T15:43:46.484Z,100919.11
2018-05-24T15:46:17.110Z,100917.03
2018-05-24T15:48:47.463Z,100913.50
2018-05-24T15:51:22.365Z,100918.34
2018-05-24T15:53:54.466Z,100906.00
2018-05-24T15:56:23.598Z,100909.81
2018-05-24T15:58:52.617Z,100904.22
2018-05-24T16:01:21.954Z,100905.11
2018-05-24T16:03:50.919Z,100900.05
2018-05-24T16:06:21.447Z,100896.72
2018-05-24T16:08:53.425Z,100898.10
2018-05-24T16:11:23.667Z,100893.24
2018-05-24T16:13:52.629Z,100895.88
2018-05-24T16:16:21.589Z,100895.41
2018-05-24T16:18:50.522Z,100900.08
2018-05-24T16:21:19.961Z,100899.89
2018-05-24T16:23:48.956Z,100892.69
2018-05-24T16:26:21.144Z,100891.30
2018-05-24T16:28:51.409Z,100893.27
2018-05-24T16:31:23.044Z,100890.95
2018-05-24T16:34:00.096Z,100884.78
2018-05-24T16:39:21.744Z,100887.00
2018-05-24T16:41:52.068Z,100887.31
2018-05-24T16:44:21.403Z,100880.66
2018-05-24T16:46:52.129Z,100881.73
2018-05-24T16:49:29.783Z,100886.64
2018-05-24T16:52:03.120Z,100880.78
2018-05-24T16:57:27.824Z,100880.34
2018-05-24T17:02:44.420Z,100888.70
2018-05-24T17:05:13.574Z,100886.36
2018-05-24T17:07:44.879Z,100886.03
2018-05-24T17:10:15.275Z,100889.86
2018-05-24T17:12:51.091Z,100892.44
2018-05-24T17:15:20.138Z,100890.78
2018-05-24T17:17:49.142Z,100893.38
2018-05-24T17:20:18.714Z,100893.00
2018-05-24T17:22:49.180Z,100888.59
2018-05-24T17:25:36.928Z,100884.09
2018-05-24T17:28:09.101Z,100891.34
2018-05-24T17:30:39.383Z,100887.78
2018-05-24T17:33:10.980Z,100888.07
2018-05-24T17:35:43.742Z,100889.85
2018-05-24T17:38:12.705Z,100886.70
2018-05-24T17:40:41.701Z,100887.69
2018-05-24T17:43:10.612Z,100883.53
2018-05-24T17:45:41.355Z,100883.63
2018-05-24T17:48:10.273Z,100883.67
2018-05-24T17:50:39.339Z,100883.42
2018-05-24T17:53:09.153Z,100883.47
2018-05-24T17:55:41.560Z,100886.34
2018-05-24T17:58:14.003Z,100893.79
2018-05-24T18:00:45.378Z,100891.84
2018-05-24T18:03:18.442Z,100890.45
2018-05-24T18:05:50.151Z,100897.42
2018-05-24T18:08:23.457Z,100900.55
2018-05-24T18:10:55.711Z,100900.33
2018-05-24T18:13:25.186Z,100902.23
2018-05-24T18:15:57.864Z,100902.72
2018-05-24T18:18:27.350Z,100904.62
2018-05-24T18:20:57.794Z,100903.23
2018-05-24T18:23:33.762Z,100907.83
2018-05-24T18:26:17.736Z,100913.81
2018-05-24T18:28:52.777Z,100906.22
2018-05-24T18:31:26.776Z,100907.86
2018-05-24T18:34:01.808Z,100902.94
2018-05-24T18:36:30.804Z,100902.39
2018-05-24T18:39:00.354Z,100907.23
2018-05-24T18:41:30.696Z,100909.14
2018-05-24T18:43:59.706Z,100907.41
2018-05-24T18:46:28.389Z,100911.69
2018-05-24T18:49:01.406Z,100908.91
2018-05-24T18:51:31.180Z,100911.03
2018-05-24T18:54:06.115Z,100914.34
2018-05-24T18:56:37.296Z,100908.39
2018-05-24T18:59:10.771Z,100916.25
2018-05-24T19:01:40.066Z,100924.61
2018-05-24T19:04:12.532Z,100922.11
2018-05-24T19:06:41.545Z,100925.33
2018-05-24T19:09:10.447Z,100927.81
2018-05-24T19:11:39.666Z,100929.50
2018-05-24T19:14:08.608Z,100933.83
2018-05-24T19:16:37.776Z,100936.35
2018-05-24T19:19:07.188Z,100935.20
2018-05-24T19:21:35.843Z,100942.53
2018-05-24T19:24:06.626Z,100943.54
2018-05-24T19:26:40.862Z,100953.59
2018-05-24T19:29:09.535Z,100962.42
2018-05-24T19:34:27.767Z,100966.31
2018-05-24T19:36:57.739Z,100972.17
2018-05-24T19:39:26.430Z,100974.86
2018-05-24T19:41:57.326Z,100976.34
2018-05-24T19:44:26.072Z,100982.47
2018-05-24T19:46:56.256Z,100982.11
2018-05-24T19:49:25.415Z,100984.61
2018-05-24T19:51:54.407Z,100985.39
2018-05-24T19:54:23.079Z,100989.75
2018-05-24T19:56:56.967Z,100986.68
2018-05-24T19:59:32.211Z,100979.61
2018-05-24T20:02:01.955Z,100985.38
2018-05-24T20:04:31.084Z,100989.11
2018-05-24T20:07:00.093Z,100986.05
2018-05-24T20:09:28.750Z,100986.57
2018-05-24T20:11:57.738Z,100984.20
2018-05-24T20:14:30.083Z,100990.03
2018-05-24T20:16:58.985Z,100989.97
2018-05-24T20:22:19.927Z,100990.48
2018-05-24T20:24:48.587Z,100988.25
2018-05-24T20:27:18.773Z,100992.59
2018-05-24T20:29:47.588Z,100993.27
2018-05-24T20:32:16.273Z,100992.91
2018-05-24T20:34:45.304Z,100992.19
2018-05-24T20:37:14.710Z,100987.42
2018-05-24T20:39:46.120Z,100986.84
2018-05-24T20:42:16.277Z,100985.66
2018-05-24T20:44:46.894Z,100985.86
2018-05-24T20:47:15.939Z,100985.48
2018-05-24T20:49:44.792Z,100988.88
2018-05-24T20:52:13.437Z,100997.73
2018-05-24T20:54:54.812Z,100992.33
2018-05-24T20:57:23.990Z,100995.23
2018-05-24T20:59:56.067Z,100995.91
2018-05-24T21:02:25.021Z,101003.94
2018-05-24T21:04:53.700Z,101008.38
2018-05-24T21:07:22.326Z,101008.15
2018-05-24T21:09:51.217Z,101007.77
2018-05-24T21:12:19.980Z,101016.45
2018-05-24T21:14:49.167Z,101006.81
2018-05-24T21:17:18.415Z,101015.25
2018-05-24T21:19:47.147Z,101010.59
2018-05-24T21:22:16.195Z,101011.84
2018-05-24T21:24:44.963Z,101013.17
2018-05-24T21:27:13.754Z,101015.16
2018-05-24T21:29:44.937Z,101017.20
2018-05-24T21:32:13.554Z,101012.70
2018-05-24T21:34:42.789Z,101019.67
2018-05-24T21:37:11.588Z,101023.98
2018-05-24T21:39:40.232Z,101029.59
2018-05-24T21:42:08.896Z,101030.78
2018-05-24T21:44:37.537Z,101028.70
2018-05-24T21:47:06.561Z,101027.89
2018-05-24T21:49:38.487Z,101019.99
2018-05-24T21:52:07.577Z,101035.77
2018-05-24T21:54:38.401Z,101022.17
2018-05-24T21:57:09.398Z,101030.30
2018-05-24T21:59:41.731Z,101026.75
2018-05-24T22:02:12.379Z,101032.26
2018-05-24T22:04:42.285Z,101032.16
2018-05-24T22:07:10.922Z,101031.17
2018-05-24T22:09:39.901Z,101038.94
2018-05-24T22:12:08.942Z,101042.10
2018-05-24T22:14:37.569Z,101040.78
2018-05-24T22:17:06.264Z,101042.42
2018-05-24T22:19:34.867Z,101041.61
2018-05-24T22:22:03.524Z,101042.67
2018-05-24T22:24:32.135Z,101045.14
2018-05-24T22:27:00.785Z,101044.57
2018-05-24T22:29:29.438Z,101040.83
2018-05-24T22:31:59.579Z,101032.85
2018-05-24T22:34:28.216Z,101036.83
2018-05-24T22:36:56.875Z,101036.98
2018-05-24T22:39:25.552Z,101038.13
2018-05-24T22:41:54.175Z,101040.75
2018-05-24T22:44:22.797Z,101041.84
2018-05-24T22:46:55.461Z,101047.33
2018-05-24T22:49:25.626Z,101040.03
2018-05-24T22:51:55.959Z,101040.95
2018-05-24T22:54:24.851Z,101040.98
2018-05-24T22:56:56.232Z,101042.59
2018-05-24T22:59:25.220Z,101039.42
2018-05-24T23:01:56.797Z,101031.60
2018-05-24T23:04:35.143Z,101028.83
2018-05-24T23:07:04.590Z,101029.09
2018-05-24T23:09:33.995Z,101034.01
2018-05-24T23:12:03.104Z,101029.75
2018-05-24T23:14:35.270Z,101025.98
2018-05-24T23:17:04.443Z,101031.16
2018-05-24T23:19:33.610Z,101035.16
2018-05-24T23:22:04.168Z,101028.98
2018-05-24T23:24:38.343Z,101032.31
2018-05-24T23:27:09.237Z,101034.94
2018-05-24T23:29:38.140Z,101037.84
2018-05-24T23:32:06.799Z,101031.16
2018-05-24T23:34:35.753Z,101025.55
2018-05-24T23:37:04.868Z,101030.86
2018-05-24T23:39:33.989Z,101026.77
2018-05-24T23:42:04.109Z,101023.45
2018-05-24T23:44:32.800Z,101018.54
2018-05-24T23:47:01.433Z,101017.63
2018-05-24T23:49:30.189Z,101012.39
2018-05-24T23:52:00.709Z,101012.88
2018-05-24T23:54:29.360Z,101011.23
2018-05-24T23:56:58.212Z,101014.03
2018-05-24T23:59:27.864Z,101012.36
